createdAt,value
2018-04-19T00:00:41.883Z,27.03
2018-04-19T00:03:08.095Z,26.93
2018-04-19T00:05:34.288Z,28.37
2018-04-19T00:08:00.477Z,27.20
2018-04-19T00:10:26.689Z,25.10
2018-04-19T00:12:52.900Z,26.47
2018-04-19T00:15:19.089Z,27.97
2018-04-19T00:17:45.289Z,27.23
2018-04-19T00:20:11.493Z,27.70
2018-04-19T00:22:37.690Z,26.73
2018-04-19T00:25:03.872Z,28.03
2018-04-19T00:27:30.082Z,26.27
2018-04-19T00:29:56.282Z,27.23
2018-04-19T00:32:22.460Z,26.50
2018-04-19T00:34:48.676Z,26.73
2018-04-19T00:37:14.885Z,26.57
2018-04-19T00:39:41.120Z,26.10
2018-04-19T00:42:07.332Z,25.43
2018-04-19T00:44:34.274Z,25.27
2018-04-19T00:47:00.456Z,26.70
2018-04-19T00:49:27.401Z,26.93
2018-04-19T00:51:54.350Z,26.37
2018-04-19T00:54:21.345Z,26.40
2018-04-19T00:56:47.516Z,28.13
2018-04-19T00:59:14.445Z,27.60
2018-04-19T01:01:40.684Z,27.27
2018-04-19T01:04:06.899Z,28.13
2018-04-19T01:06:33.086Z,27.40
2018-04-19T01:08:59.272Z,27.03
2018-04-19T01:11:25.468Z,27.27
2018-04-19T01:13:51.665Z,25.93
2018-04-19T01:16:17.845Z,26.73
2018-04-19T01:18:44.068Z,26.43
2018-04-19T01:21:10.264Z,25.87
2018-04-19T01:23:36.469Z,25.77
2018-04-19T01:26:02.685Z,25.90
2018-04-19T01:28:29.625Z,26.80
2018-04-19T01:30:56.555Z,26.23
2018-04-19T01:33:22.735Z,25.47
2018-04-19T01:38:58.380Z,25.43
2018-04-19T01:41:25.188Z,27.07
2018-04-19T01:43:51.269Z,28.73
2018-04-19T01:46:17.343Z,27.07
2018-04-19T01:48:43.434Z,26.47
2018-04-19T01:51:09.508Z,27.20
2018-04-19T01:53:36.315Z,27.07
2018-04-19T01:56:02.392Z,25.63
2018-04-19T01:58:28.459Z,28.57
2018-04-19T02:00:54.535Z,26.27
2018-04-19T02:03:21.339Z,26.77
2018-04-19T02:05:48.154Z,27.13
2018-04-19T02:08:14.223Z,25.87
2018-04-19T02:10:40.289Z,24.83
2018-04-19T02:13:06.359Z,24.73
2018-04-19T02:15:32.428Z,26.00
2018-04-19T02:17:58.500Z,29.07
2018-04-19T02:20:24.568Z,26.93
2018-04-19T02:22:51.372Z,24.93
2018-04-19T02:25:17.448Z,26.97
2018-04-19T02:27:43.519Z,26.47
2018-04-19T02:30:09.589Z,25.63
2018-04-19T02:32:36.405Z,25.97
2018-04-19T02:35:02.479Z,27.10
2018-04-19T02:37:28.544Z,28.10
2018-04-19T02:39:54.613Z,27.37
2018-04-19T02:42:20.680Z,26.60
2018-04-19T02:44:46.759Z,26.63
2018-04-19T02:47:12.831Z,27.83
2018-04-19T02:49:38.916Z,26.50
2018-04-19T02:52:04.992Z,27.43
2018-04-19T02:54:31.099Z,27.23
2018-04-19T02:56:57.173Z,28.27
2018-04-19T02:59:23.984Z,28.07
2018-04-19T03:01:50.064Z,27.87
2018-04-19T03:04:16.129Z,26.93
2018-04-19T03:06:42.200Z,27.63
2018-04-19T03:09:08.275Z,27.97
2018-04-19T03:11:34.347Z,28.03
2018-04-19T03:14:01.156Z,28.47
2018-04-19T03:16:27.239Z,28.73
2018-04-19T03:18:53.303Z,29.43
2018-04-19T03:21:19.377Z,27.30
2018-04-19T03:23:45.443Z,26.23
2018-04-19T03:26:11.521Z,27.30
2018-04-19T03:28:37.592Z,28.87
2018-04-19T03:31:03.669Z,29.37
2018-04-19T03:33:29.757Z,27.37
2018-04-19T03:35:55.831Z,29.43
2018-04-19T03:38:21.910Z,28.07
2018-04-19T03:40:47.993Z,27.30
2018-04-19T03:43:14.072Z,31.10
2018-04-19T03:45:40.131Z,31.87
2018-04-19T03:48:06.202Z,32.17
2018-04-19T03:50:32.272Z,32.67
2018-04-19T03:52:58.351Z,31.37
2018-04-19T03:55:24.422Z,31.17
2018-04-19T03:57:50.507Z,32.30
2018-04-19T04:00:16.588Z,30.20
2018-04-19T04:02:42.655Z,29.20
2018-04-19T04:05:08.720Z,29.40
2018-04-19T04:07:35.528Z,29.20
2018-04-19T04:10:01.605Z,28.77
2018-04-19T04:12:27.677Z,30.40
2018-04-19T04:14:53.743Z,30.80
2018-04-19T04:17:38.448Z,30.83
2018-04-19T04:26:22.988Z,30.63
2018-04-19T04:28:49.791Z,31.70
2018-04-19T04:31:15.871Z,30.23
2018-04-19T04:33:41.944Z,30.83
2018-04-19T04:36:08.052Z,29.83
2018-04-19T04:38:34.132Z,28.43
2018-04-19T04:41:00.944Z,27.77
2018-04-19T04:43:27.018Z,28.63
2018-04-19T04:45:53.084Z,27.60
2018-04-19T04:48:19.168Z,28.77
2018-04-19T04:50:45.243Z,29.03
2018-04-19T04:53:11.315Z,28.40
2018-04-19T04:55:37.383Z,29.40
2018-04-19T04:58:03.482Z,28.73
2018-04-19T05:00:29.556Z,26.97
2018-04-19T05:02:55.628Z,27.63
2018-04-19T05:05:21.720Z,27.33
2018-04-19T05:07:48.548Z,27.27
2018-04-19T05:10:14.644Z,27.67
2018-04-19T05:12:40.728Z,27.10
2018-04-19T05:15:07.544Z,25.83
2018-04-19T05:17:33.617Z,26.70
2018-04-19T05:19:59.700Z,26.33
2018-04-19T05:22:25.768Z,25.70
2018-04-19T05:24:59.981Z,24.97
2018-04-19T05:27:26.059Z,24.93
2018-04-19T05:29:52.163Z,23.93
2018-04-19T05:32:18.231Z,21.87
2018-04-19T05:34:45.044Z,20.47
2018-04-19T05:37:11.133Z,19.60
2018-04-19T05:39:37.188Z,19.23
2018-04-19T05:42:03.256Z,19.37
2018-04-19T05:44:29.323Z,18.23
2018-04-19T05:46:55.405Z,18.33
2018-04-19T05:49:22.224Z,17.33
2018-04-19T05:51:48.299Z,15.83
2018-04-19T05:54:14.367Z,15.93
2018-04-19T05:56:40.452Z,15.37
2018-04-19T05:59:06.523Z,14.27
2018-04-19T06:01:32.600Z,13.67
2018-04-19T06:03:58.727Z,14.13
2018-04-19T06:06:24.832Z,14.40
2018-04-19T06:08:50.900Z,15.60
2018-04-19T06:11:16.975Z,15.73
2018-04-19T06:13:43.792Z,15.90
2018-04-19T06:16:09.872Z,15.30
2018-04-19T06:18:35.987Z,15.63
2018-04-19T06:21:02.064Z,15.23
2018-04-19T06:23:28.137Z,14.97
2018-04-19T06:25:54.219Z,15.80
2018-04-19T06:28:20.299Z,14.70
2018-04-19T06:30:46.376Z,15.20
2018-04-19T06:33:13.195Z,16.40
2018-04-19T06:35:39.261Z,15.73
2018-04-19T06:38:06.102Z,14.93
2018-04-19T06:40:32.935Z,15.03
2018-04-19T06:42:59.743Z,14.50
2018-04-19T06:45:25.820Z,14.83
2018-04-19T06:47:51.895Z,15.47
2018-04-19T06:50:17.984Z,15.90
2018-04-19T06:52:44.061Z,15.73
2018-04-19T06:55:10.138Z,15.13
2018-04-19T06:57:36.207Z,15.47
2018-04-19T07:00:02.277Z,14.73
2018-04-19T07:02:28.360Z,16.10
2018-04-19T07:04:54.439Z,15.67
2018-04-19T07:07:20.508Z,15.40
2018-04-19T07:09:46.585Z,15.27
2018-04-19T07:12:12.663Z,14.50
2018-04-19T07:14:38.806Z,14.90
2018-04-19T07:17:04.828Z,15.87
2018-04-19T07:19:31.648Z,15.20
2018-04-19T07:21:57.724Z,15.17
2018-04-19T07:24:23.803Z,15.80
2018-04-19T07:26:49.884Z,15.20
2018-04-19T07:29:15.956Z,15.90
2018-04-19T07:31:42.036Z,15.35
2018-04-19T07:34:08.121Z,15.02
2018-04-19T07:36:34.940Z,14.87
2018-04-19T07:39:01.045Z,16.05
2018-04-19T07:41:30.736Z,16.35
2018-04-19T07:43:56.816Z,14.87
2018-04-19T07:46:23.642Z,15.10
2018-04-19T07:48:49.711Z,15.10
2018-04-19T07:51:15.796Z,14.85
2018-04-19T07:53:41.873Z,14.80
2018-04-19T07:56:07.960Z,15.32
2018-04-19T07:58:34.779Z,15.23
2018-04-19T08:01:00.847Z,14.93
2018-04-19T08:03:26.946Z,14.68
2018-04-19T08:05:53.028Z,14.80
2018-04-19T08:08:19.112Z,15.50
2018-04-19T08:10:45.939Z,14.77
2018-04-19T08:13:12.019Z,15.13
2018-04-19T08:15:38.102Z,16.08
2018-04-19T08:18:04.919Z,15.55
2018-04-19T08:20:30.996Z,15.98
2018-04-19T08:22:57.091Z,15.27
2018-04-19T08:25:23.905Z,15.48
2018-04-19T08:27:49.993Z,15.50
2018-04-19T08:30:16.065Z,15.00
2018-04-19T08:32:42.167Z,15.23
2018-04-19T08:35:08.280Z,15.25
2018-04-19T08:37:35.050Z,14.90
2018-04-19T08:40:01.132Z,15.05
2018-04-19T08:42:27.200Z,14.87
2018-04-19T08:44:53.288Z,15.52
2018-04-19T08:47:19.356Z,14.15
2018-04-19T08:49:45.457Z,16.00
2018-04-19T08:52:11.542Z,16.12
2018-04-19T08:54:38.372Z,15.27
2018-04-19T08:57:05.195Z,13.73
2018-04-19T08:59:31.281Z,15.60
2018-04-19T09:01:57.351Z,13.88
2018-04-19T09:04:23.428Z,13.68
2018-04-19T09:06:49.503Z,13.48
2018-04-19T09:09:15.606Z,14.35
2018-04-19T09:11:41.679Z,14.25
2018-04-19T09:14:08.508Z,13.88
2018-04-19T09:16:35.335Z,14.20
2018-04-19T09:19:01.417Z,14.48
2018-04-19T09:21:27.492Z,15.18
2018-04-19T09:24:14.008Z,15.00
2018-04-19T09:26:40.838Z,14.75
2018-04-19T09:29:06.931Z,15.60
2018-04-19T09:31:33.015Z,15.32
2018-04-19T09:33:59.829Z,15.82
2018-04-19T09:36:25.920Z,15.60
2018-04-19T09:38:51.986Z,15.35
2018-04-19T09:41:18.072Z,15.77
2018-04-19T09:43:44.147Z,16.65
2018-04-19T09:46:11.022Z,14.50
2018-04-19T09:48:37.108Z,19.42
2018-04-19T09:51:03.195Z,15.25
2018-04-19T09:53:29.280Z,14.10
2018-04-19T09:55:55.389Z,15.60
2018-04-19T09:58:22.207Z,16.02
2018-04-19T10:00:54.454Z,14.70
2018-04-19T10:03:20.541Z,14.48
2018-04-19T10:05:47.370Z,15.30
2018-04-19T10:08:14.192Z,15.05
2018-04-19T10:10:40.272Z,14.85
2018-04-19T10:13:06.355Z,14.15
2018-04-19T10:15:32.433Z,15.85
2018-04-19T10:18:14.377Z,16.45
2018-04-19T10:20:46.791Z,15.98
2018-04-19T10:23:37.368Z,16.23
2018-04-19T10:26:04.182Z,16.25
2018-04-19T10:28:34.635Z,16.37
2018-04-19T10:31:01.476Z,15.40
2018-04-19T10:33:28.300Z,16.42
2018-04-19T10:36:00.931Z,16.02
2018-04-19T10:38:27.035Z,16.27
2018-04-19T10:40:53.851Z,15.52
2018-04-19T10:43:19.932Z,15.88
2018-04-19T10:45:46.027Z,15.60
2018-04-19T10:48:12.849Z,16.05
2018-04-19T10:50:38.937Z,16.15
2018-04-19T10:56:05.275Z,15.32
2018-04-19T10:58:31.360Z,13.27
2018-04-19T11:00:58.203Z,11.12
2018-04-19T11:03:25.024Z,11.75
2018-04-19T11:05:51.103Z,11.57
2018-04-19T11:08:17.165Z,12.57
2018-04-19T11:10:43.253Z,12.55
2018-04-19T11:13:09.322Z,14.85
2018-04-19T11:15:35.421Z,14.18
2018-04-19T11:18:01.500Z,12.07
2018-04-19T11:20:28.323Z,12.80
2018-04-19T11:22:54.397Z,15.23
2018-04-19T11:25:20.477Z,16.83
2018-04-19T11:27:47.305Z,13.93
2018-04-19T11:30:14.901Z,14.10
2018-04-19T11:32:41.724Z,14.40
2018-04-19T11:35:07.796Z,13.75
2018-04-19T11:37:33.884Z,12.07
2018-04-19T11:40:00.704Z,12.05
2018-04-19T11:42:26.793Z,11.85
2018-04-19T11:44:52.889Z,11.98
2018-04-19T11:47:19.712Z,10.98
2018-04-19T11:49:45.800Z,12.15
2018-04-19T11:52:11.884Z,12.02
2018-04-19T11:54:37.962Z,10.80
2018-04-19T11:57:04.051Z,10.55
2018-04-19T11:59:30.144Z,11.77
2018-04-19T12:01:56.253Z,12.07
2018-04-19T12:04:22.328Z,12.13
2018-04-19T12:06:48.407Z,10.95
2018-04-19T12:09:14.496Z,13.13
2018-04-19T12:11:40.559Z,13.82
2018-04-19T12:14:06.640Z,11.82
2018-04-19T12:16:32.720Z,10.57
2018-04-19T12:18:59.548Z,9.63
2018-04-19T12:21:25.615Z,11.98
2018-04-19T12:23:51.704Z,11.12
2018-04-19T12:26:17.792Z,10.63
2018-04-19T12:28:43.883Z,10.90
2018-04-19T12:31:09.966Z,13.15
2018-04-19T12:33:36.083Z,11.98
2018-04-19T12:36:02.160Z,10.98
2018-04-19T12:38:28.240Z,11.32
2018-04-19T12:40:54.333Z,10.95
2018-04-19T12:43:20.404Z,10.27
2018-04-19T12:45:46.480Z,10.07
2018-04-19T12:48:12.563Z,12.30
2018-04-19T12:50:38.651Z,10.20
2018-04-19T12:53:04.729Z,10.48
2018-04-19T12:55:31.547Z,8.30
2018-04-19T12:57:57.620Z,8.75
2018-04-19T13:00:23.709Z,12.37
2018-04-19T13:02:50.532Z,12.00
2018-04-19T13:05:16.633Z,12.27
2018-04-19T13:07:42.707Z,11.15
2018-04-19T13:10:09.523Z,9.40
2018-04-19T13:12:35.604Z,10.20
2018-04-19T13:15:01.680Z,9.55
2018-04-19T13:17:27.764Z,10.63
2018-04-19T13:19:53.839Z,9.98
2018-04-19T13:22:19.916Z,10.43
2018-04-19T13:24:46.004Z,9.93
2018-04-19T13:27:12.830Z,9.43
2018-04-19T13:30:04.672Z,9.38
2018-04-19T13:32:31.503Z,8.95
2018-04-19T13:34:57.571Z,8.30
2018-04-19T13:37:23.644Z,8.45
2018-04-19T13:39:49.757Z,8.02
2018-04-19T13:42:15.825Z,10.00
2018-04-19T13:44:42.639Z,11.48
2018-04-19T13:47:08.733Z,9.57
2018-04-19T13:49:34.820Z,9.23
2018-04-19T13:52:01.657Z,11.93
2018-04-19T13:54:28.484Z,9.55
2018-04-19T13:56:54.574Z,8.38
2018-04-19T13:59:20.642Z,8.15
2018-04-19T14:01:47.464Z,8.68
2018-04-19T14:04:13.545Z,11.12
2018-04-19T14:06:39.620Z,10.40
2018-04-19T14:09:06.716Z,9.15
2018-04-19T14:11:32.816Z,9.70
2018-04-19T14:13:59.646Z,9.50
2018-04-19T14:16:40.085Z,9.40
2018-04-19T14:19:06.167Z,8.50
2018-04-19T14:21:32.240Z,9.10
2018-04-19T14:23:58.327Z,9.38
2018-04-19T14:26:24.408Z,9.68
2018-04-19T14:28:50.487Z,8.52
2018-04-19T14:31:16.606Z,8.50
2018-04-19T14:33:42.667Z,8.85
2018-04-19T14:36:08.746Z,8.38
2018-04-19T14:38:34.851Z,7.75
2018-04-19T14:41:01.716Z,8.15
2018-04-19T14:43:27.792Z,7.75
2018-04-19T14:45:55.347Z,7.68
2018-04-19T14:48:21.412Z,7.60
2018-04-19T14:50:48.235Z,7.72
2018-04-19T14:53:14.312Z,7.28
2018-04-19T14:55:40.399Z,7.50
2018-04-19T14:58:06.473Z,6.95
2018-04-19T15:00:32.555Z,6.87
2018-04-19T15:02:58.623Z,6.05
2018-04-19T15:05:24.704Z,6.47
2018-04-19T15:07:50.775Z,5.97
2018-04-19T15:10:16.860Z,5.43
2018-04-19T15:12:42.936Z,6.22
2018-04-19T15:15:09.011Z,6.28
2018-04-19T15:17:35.137Z,5.85
2018-04-19T15:20:01.267Z,5.00
2018-04-19T15:22:27.313Z,5.43
2018-04-19T15:24:53.395Z,5.00
2018-04-19T15:27:20.221Z,4.65
2018-04-19T15:29:46.305Z,5.12
2018-04-19T15:32:12.387Z,4.75
2018-04-19T15:34:39.205Z,4.78
2018-04-19T15:37:05.296Z,4.43
2018-04-19T15:39:31.380Z,4.87
2018-04-19T15:41:58.220Z,4.57
2018-04-19T15:44:24.298Z,4.82
2018-04-19T15:46:50.396Z,3.80
2018-04-19T15:49:16.488Z,3.60
2018-04-19T15:51:42.556Z,3.97
2018-04-19T15:54:08.652Z,3.60
2018-04-19T15:56:35.482Z,3.70
2018-04-19T15:59:01.596Z,3.75
2018-04-19T16:01:27.643Z,3.20
2018-04-19T16:03:54.468Z,3.70
2018-04-19T16:06:20.555Z,4.12
2018-04-19T16:08:46.652Z,3.47
2018-04-19T16:11:13.514Z,3.95
2018-04-19T16:13:39.593Z,3.50
2018-04-19T16:16:05.689Z,4.35
2018-04-19T16:18:31.776Z,4.40
2018-04-19T16:20:57.855Z,4.40
2018-04-19T16:23:23.949Z,4.20
2018-04-19T16:25:50.032Z,4.28
2018-04-19T16:28:16.891Z,4.12
2018-04-19T16:30:43.689Z,4.20
2018-04-19T16:33:09.774Z,4.20
2018-04-19T16:35:35.852Z,4.40
2018-04-19T16:38:02.689Z,4.20
2018-04-19T16:40:28.783Z,4.37
2018-04-19T16:42:54.871Z,3.90
2018-04-19T16:45:21.704Z,4.25
2018-04-19T16:47:48.519Z,3.85
2018-04-19T16:50:14.611Z,4.40
2018-04-19T16:52:40.688Z,4.12
2018-04-19T16:55:06.759Z,3.70
2018-04-19T16:57:32.828Z,3.97
2018-04-19T16:59:58.916Z,3.92
2018-04-19T17:02:24.988Z,3.78
2018-04-19T17:04:51.080Z,4.10
2018-04-19T17:07:17.164Z,3.67
2018-04-19T17:09:43.244Z,3.65
2018-04-19T17:12:09.336Z,3.45
2018-04-19T17:14:35.427Z,4.10
2018-04-19T17:17:02.256Z,4.18
2018-04-19T17:19:28.327Z,3.85
2018-04-19T17:21:54.484Z,3.90
2018-04-19T17:24:20.522Z,3.97
2018-04-19T17:26:46.610Z,4.25
2018-04-19T17:29:12.701Z,4.22
2018-04-19T17:31:39.519Z,4.22
2018-04-19T17:34:06.345Z,4.50
2018-04-19T17:36:32.433Z,4.03
2018-04-19T17:38:58.508Z,4.00
2018-04-19T17:41:24.596Z,4.70
2018-04-19T17:43:50.680Z,5.10
2018-04-19T17:46:17.488Z,4.55
2018-04-19T17:48:43.569Z,5.00
2018-04-19T17:51:09.661Z,4.37
2018-04-19T17:53:35.744Z,5.00
2018-04-19T17:56:01.815Z,4.78
2018-04-19T17:58:27.896Z,4.40
2018-04-19T18:00:53.972Z,5.05
2018-04-19T18:03:20.800Z,4.53
2018-04-19T18:05:48.360Z,4.55
2018-04-19T18:08:14.445Z,4.53
2018-04-19T18:10:40.507Z,4.18
2018-04-19T18:13:06.587Z,4.93
2018-04-19T18:15:32.674Z,5.30
2018-04-19T18:17:59.496Z,4.97
2018-04-19T18:20:25.561Z,4.57
2018-04-19T18:22:51.713Z,4.70
2018-04-19T18:25:49.791Z,4.40
2018-04-19T18:28:15.872Z,4.90
2018-04-19T18:30:42.698Z,4.87
2018-04-19T18:33:08.780Z,5.57
2018-04-19T18:35:34.847Z,5.67
2018-04-19T18:38:00.931Z,5.57
2018-04-19T18:40:26.996Z,5.17
2018-04-19T18:42:53.084Z,5.70
2018-04-19T18:45:19.169Z,5.57
2018-04-19T18:47:45.980Z,5.90
2018-04-19T18:50:12.124Z,5.77
2018-04-19T18:52:46.085Z,5.70
2018-04-19T18:55:12.160Z,6.30
2018-04-19T18:57:38.224Z,6.30
2018-04-19T19:00:04.292Z,5.83
2018-04-19T19:02:30.352Z,6.10
2018-04-19T19:04:57.171Z,6.57
2018-04-19T19:07:23.235Z,6.70
2018-04-19T19:09:49.308Z,6.73
2018-04-19T19:12:15.368Z,6.77
2018-04-19T19:14:42.183Z,7.17
2018-04-19T19:17:26.978Z,7.40
2018-04-19T19:20:11.152Z,6.47
2018-04-19T19:22:37.228Z,7.73
2018-04-19T19:25:03.303Z,8.13
2018-04-19T19:27:29.386Z,8.23
2018-04-19T19:29:55.463Z,7.67
2018-04-19T19:32:21.546Z,7.97
2018-04-19T19:34:49.376Z,8.07
2018-04-19T19:37:15.460Z,7.93
2018-04-19T19:39:41.540Z,7.90
2018-04-19T19:42:07.617Z,7.40
2018-04-19T19:44:33.728Z,8.13
2018-04-19T19:47:00.547Z,8.57
2018-04-19T19:49:26.628Z,9.23
2018-04-19T19:51:52.804Z,9.10
2018-04-19T19:54:18.867Z,8.60
2018-04-19T19:56:44.943Z,9.00
2018-04-19T19:59:11.008Z,8.50
2018-04-19T20:01:37.084Z,8.20
2018-04-19T20:04:03.157Z,9.07
2018-04-19T20:06:29.240Z,9.47
2018-04-19T20:08:55.314Z,8.70
2018-04-19T20:11:21.397Z,8.83
2018-04-19T20:13:47.464Z,8.53
2018-04-19T20:16:16.844Z,9.17
2018-04-19T20:18:43.644Z,9.27
2018-04-19T20:21:09.726Z,10.20
2018-04-19T20:23:53.212Z,8.77
2018-04-19T20:29:26.488Z,10.83
2018-04-19T20:35:05.679Z,10.53
2018-04-19T20:37:31.750Z,9.40
2018-04-19T20:39:57.823Z,10.63
2018-04-19T20:42:55.015Z,10.00
2018-04-19T20:45:47.860Z,10.00
2018-04-19T20:48:25.624Z,9.83
2018-04-19T20:50:51.703Z,9.90
2018-04-19T20:53:17.789Z,9.67
2018-04-19T20:55:47.315Z,9.83
2018-04-19T20:58:45.649Z,10.93
2018-04-19T21:01:25.303Z,10.73
2018-04-19T21:03:51.375Z,10.70
2018-04-19T21:06:18.188Z,11.03
2018-04-19T21:09:17.772Z,11.57
2018-04-19T21:11:43.845Z,11.30
2018-04-19T21:14:17.388Z,10.57
2018-04-19T21:19:43.819Z,11.43
2018-04-19T21:22:13.208Z,11.40
2018-04-19T21:24:40.033Z,11.17
2018-04-19T21:27:09.947Z,11.97
2018-04-19T21:29:36.036Z,12.53
2018-04-19T21:32:02.103Z,12.13
2018-04-19T21:34:28.176Z,12.07
2018-04-19T21:37:15.572Z,12.27
2018-04-19T21:39:43.439Z,12.83
2018-04-19T21:42:10.248Z,12.10
2018-04-19T21:44:43.112Z,13.80
2018-04-19T21:47:09.180Z,12.87
2018-04-19T21:49:36.034Z,13.63
2018-04-19T21:52:02.088Z,13.90
2018-04-19T21:54:28.168Z,13.30
2018-04-19T21:56:54.252Z,15.10
2018-04-19T21:59:20.307Z,14.43
2018-04-19T22:02:01.684Z,15.07
2018-04-19T22:04:31.213Z,16.43
2018-04-19T22:07:08.752Z,16.77
2018-04-19T22:09:50.166Z,16.73
2018-04-19T22:12:22.707Z,15.83
2018-04-19T22:14:48.844Z,15.63
2018-04-19T22:17:15.634Z,15.53
2018-04-19T22:19:41.708Z,15.53
2018-04-19T22:22:07.796Z,15.07
2018-04-19T22:24:34.620Z,15.53
2018-04-19T22:27:17.990Z,14.40
2018-04-19T22:29:44.016Z,15.57
2018-04-19T22:32:10.078Z,16.27
2018-04-19T22:34:36.165Z,17.03
2018-04-19T22:37:02.227Z,16.73
2018-04-19T22:39:28.300Z,16.17
2018-04-19T22:41:54.376Z,17.13
2018-04-19T22:44:20.472Z,17.83
2018-04-19T22:46:46.556Z,18.20
2018-04-19T22:49:12.636Z,17.70
2018-04-19T22:51:38.715Z,17.37
2018-04-19T22:54:05.520Z,17.93
2018-04-19T22:56:31.602Z,18.03
2018-04-19T22:58:57.676Z,18.90
2018-04-19T23:01:23.748Z,19.27
2018-04-19T23:03:49.827Z,18.77
2018-04-19T23:06:15.903Z,18.97
2018-04-19T23:08:41.992Z,18.97
2018-04-19T23:11:08.065Z,17.97
2018-04-19T23:13:34.127Z,18.53
2018-04-19T23:16:00.204Z,16.63
2018-04-19T23:18:26.257Z,16.60
2018-04-19T23:20:52.311Z,16.73
2018-04-19T23:23:18.367Z,17.40
2018-04-19T23:25:45.177Z,17.93
2018-04-19T23:28:11.968Z,18.23
2018-04-19T23:30:38.073Z,19.37
2018-04-19T23:33:04.095Z,20.53
2018-04-19T23:35:30.910Z,19.57
2018-04-19T23:37:56.971Z,19.83
2018-04-19T23:40:23.763Z,21.63
2018-04-19T23:42:49.826Z,19.80
2018-04-19T23:45:16.627Z,20.43
2018-04-19T23:47:42.693Z,20.67
2018-04-19T23:50:09.496Z,17.50
2018-04-19T23:52:35.563Z,17.37
2018-04-19T23:55:02.353Z,17.03
2018-04-19T23:57:28.411Z,18.50
2018-04-19T23:59:54.480Z,18.53
